Messwerte Gulkana

Temperatur

Temperatur
°C
1615118400 3.00 3.00 -14
1615122000 4.00 4.00 -17
1615125600 5.00 5.00 -18
1615129200 6.00 6.00 -20
1615132800 7.00 7.00 -21
1615136400 8.00 8.00 -21
1615140000 9.00 9.00 -19
1615143600 10.00 10.00 -16
1615147200 11.00 11.00 -12
1615150800 12.00 12.00 -13
1615154400 13.00 13.00 -9
1615158000 14.00 14.00 -8
1615161600 15.00 15.00 -6
1615165200 16.00 16.00 -6
1615168800 17.00 17.00 -6
1615172400 18.00 18.00
1615176000 19.00 19.00 -13
1615179600 20.00 20.00 -16
1615183200 21.00 21.00 -17
1615186800 22.00 22.00 -20
1615190400 23.00 23.00 -20
1615194000 0.00 0.00 -18
1615197600 1.00 1.00 -18
1615201200 2.00 2.00

Wir danken unserem Partner:

Aktuellste Messwerte

Wettercharakter
Wetter: klar
Temperatur
-21 °C
Feuchtigkeit
85 %
Wind
5 km/hWindrichtung: West
Luftdruck
1025 hPa
Messzeit: 8. März 2021, 3.00Datenquelle: METAR

Weitere Messstationen in der Nähe

Messstation Temperatur Entfernung
Eureka -13 °C 93 km
Valdez 2 -1 °C 121 km
Cordova -8 °C 183 km
Palmer -12 °C 200 km
Northway -19 °C 202 km
Ft. Greely -14 °C 206 km
Wasilla -17 °C 224 km

Wind

Windrichtung Böen Mittelwind
° km/h km/h
1615118400 3.00 2.00 - 3.00 0
1615122000 4.00 3.00 - 4.00 310° 5
1615125600 5.00 4.00 - 5.00 340° 5
1615129200 6.00 5.00 - 6.00 340° 5
1615132800 7.00 6.00 - 7.00 320° 10
1615136400 8.00 7.00 - 8.00 320° 10
1615140000 9.00 8.00 - 9.00 10° 5
1615143600 10.00 9.00 - 10.00 350° 5
1615147200 11.00 10.00 - 11.00 350° 5
1615150800 12.00 11.00 - 12.00 0
1615154400 13.00 12.00 - 13.00 0
1615158000 14.00 13.00 - 14.00 0
1615161600 15.00 14.00 - 15.00 0
1615165200 16.00 15.00 - 16.00 0
1615168800 17.00 16.00 - 17.00 70° 5
1615172400 18.00 17.00 - 18.00
1615176000 19.00 18.00 - 19.00 0
1615179600 20.00 19.00 - 20.00 0
1615183200 21.00 20.00 - 21.00 0
1615186800 22.00 21.00 - 22.00 0
1615190400 23.00 22.00 - 23.00 30° 5
1615194000 0.00 23.00 - 0.00 360° 10
1615197600 1.00 0.00 - 1.00 10° 10
1615201200 2.00 1.00 - 2.00

Ihre Wetterstation

Fehlt Ihre Wetterstation auf unserem Portal?

Schreiben Sie an network@meteonews.ch

Klima

Wann ist es am wärmsten? Wann regnet es am wenigsten? Unsere Klimadaten geben Auskunft.